createdAt,value
2019-01-19T00:01:08.821Z,-1.51
2019-01-19T00:04:31.657Z,-1.56
2019-01-19T00:07:37.999Z,-1.61
2019-01-19T00:10:44.944Z,-1.56
2019-01-19T00:13:51.502Z,-1.51
2019-01-19T00:16:58.859Z,-1.46
2019-01-19T00:20:00.981Z,-1.53
2019-01-19T00:23:00.224Z,-1.48
2019-01-19T00:26:12.361Z,-1.48
2019-01-19T00:28:49.954Z,-1.53
2019-01-19T00:31:54.945Z,-1.59
2019-01-19T00:35:06.658Z,-1.55
2019-01-19T00:37:58.604Z,-1.46
2019-01-19T00:41:14.225Z,-1.40
2019-01-19T00:43:51.147Z,-1.40
2019-01-19T00:46:57.725Z,-1.38
2019-01-19T00:49:37.889Z,-1.34
2019-01-19T00:52:26.009Z,-1.22
2019-01-19T00:55:38.667Z,-1.14
2019-01-19T00:58:33.390Z,-1.08
2019-01-19T01:01:50.237Z,-1.07
2019-01-19T01:04:55.195Z,-1.19
2019-01-19T01:08:10.851Z,-1.14
2019-01-19T01:10:54.409Z,-1.21
2019-01-19T01:14:03.752Z,-1.19
2019-01-19T01:17:02.680Z,-1.27
2019-01-19T01:19:59.329Z,-1.33
2019-01-19T01:22:56.194Z,-1.37
2019-01-19T01:26:18.143Z,-1.29
2019-01-19T01:29:31.355Z,-1.36
2019-01-19T01:32:14.779Z,-1.23
2019-01-19T01:35:22.239Z,-1.37
2019-01-19T01:38:14.942Z,-1.44
2019-01-19T01:41:19.938Z,-1.45
2019-01-19T01:44:30.139Z,-1.55
2019-01-19T01:47:54.435Z,-1.52
2019-01-19T01:51:01.092Z,-1.46
2019-01-19T01:54:01.435Z,-1.56
2019-01-19T01:56:31.151Z,-1.64
2019-01-19T01:59:12.819Z,-1.53
2019-01-19T02:02:16.444Z,-1.68
2019-01-19T02:05:25.238Z,-1.67
2019-01-19T02:08:24.052Z,-1.63
2019-01-19T02:11:24.678Z,-1.57
2019-01-19T02:14:27.988Z,-1.55
2019-01-19T02:17:53.939Z,-1.65
2019-01-19T02:20:38.896Z,-1.71
2019-01-19T02:23:45.585Z,-1.71
2019-01-19T02:27:01.514Z,-1.70
2019-01-19T02:29:56.099Z,-1.56
2019-01-19T02:33:03.529Z,-1.52
2019-01-19T02:36:12.832Z,-1.47
2019-01-19T02:39:27.267Z,-1.50
2019-01-19T02:42:33.350Z,-1.47
2019-01-19T02:45:37.416Z,-1.52
2019-01-19T02:48:51.861Z,-1.52
2019-01-19T02:51:56.642Z,-1.53
2019-01-19T02:55:22.596Z,-1.52
2019-01-19T02:58:27.830Z,-1.53
2019-01-19T03:01:37.387Z,-1.60
2019-01-19T03:04:56.971Z,-1.56
2019-01-19T03:07:44.516Z,-1.55
2019-01-19T03:10:47.836Z,-1.57
2019-01-19T03:13:47.890Z,-1.31
2019-01-19T03:17:13.857Z,-1.46
2019-01-19T03:20:17.711Z,-1.45
2019-01-19T03:23:13.781Z,-1.47
2019-01-19T03:26:11.321Z,-1.52
2019-01-19T03:29:20.757Z,-1.60
2019-01-19T03:32:25.909Z,-1.59
2019-01-19T03:35:27.993Z,-1.66
2019-01-19T03:38:40.311Z,-1.64
2019-01-19T03:41:49.518Z,-1.62
2019-01-19T03:45:21.041Z,-1.51
2019-01-19T03:48:06.411Z,-1.49
2019-01-19T03:51:22.069Z,-1.56
2019-01-19T03:53:56.757Z,-1.43
2019-01-19T03:56:49.131Z,-1.53
2019-01-19T03:59:56.231Z,-1.55
2019-01-19T04:03:01.287Z,-1.56
2019-01-19T04:06:12.604Z,-1.58
2019-01-19T04:09:16.050Z,-1.60
2019-01-19T04:12:53.756Z,-1.55
2019-01-19T04:15:58.901Z,-1.50
2019-01-19T04:18:59.639Z,-1.56
2019-01-19T04:22:08.419Z,-1.56
2019-01-19T04:25:24.630Z,-1.56
2019-01-19T04:27:53.939Z,-1.61
2019-01-19T04:30:22.973Z,-1.66
2019-01-19T04:32:52.141Z,-1.59
2019-01-19T04:35:21.701Z,-1.62
2019-01-19T04:37:51.121Z,-1.63
2019-01-19T04:40:20.143Z,-1.62
2019-01-19T04:42:49.449Z,-1.67
2019-01-19T04:45:18.516Z,-1.73
2019-01-19T04:47:48.825Z,-1.61
2019-01-19T04:50:18.320Z,-1.53
2019-01-19T04:52:47.765Z,-1.62
2019-01-19T04:55:16.771Z,-1.66
2019-01-19T04:57:46.957Z,-1.60
2019-01-19T05:00:18.215Z,-1.67
2019-01-19T05:02:48.832Z,-1.63
2019-01-19T05:05:17.855Z,-1.66
2019-01-19T05:07:46.865Z,-1.57
2019-01-19T05:10:16.898Z,-1.59
2019-01-19T05:12:46.505Z,-1.66
2019-01-19T05:15:20.763Z,-1.60
2019-01-19T05:17:50.681Z,-1.68
2019-01-19T05:20:19.972Z,-1.68
2019-01-19T05:22:49.119Z,-1.70
2019-01-19T05:25:18.532Z,-1.75
2019-01-19T05:27:47.919Z,-1.74
2019-01-19T05:30:19.779Z,-1.58
2019-01-19T05:32:48.909Z,-1.62
2019-01-19T05:35:17.991Z,-1.63
2019-01-19T05:37:47.419Z,-1.68
2019-01-19T05:40:16.522Z,-1.69
2019-01-19T05:42:45.984Z,-1.75
2019-01-19T05:45:16.042Z,-1.85
2019-01-19T05:47:45.098Z,-1.92
2019-01-19T05:50:17.106Z,-1.84
2019-01-19T05:52:46.357Z,-1.91
2019-01-19T05:55:15.802Z,-1.98
2019-01-19T05:57:44.845Z,-1.98
2019-01-19T06:00:19.901Z,-1.97
2019-01-19T06:02:49.333Z,-1.88
2019-01-19T06:05:18.935Z,-1.92
2019-01-19T06:07:48.717Z,-1.98
2019-01-19T06:10:18.330Z,-1.94
2019-01-19T06:12:47.375Z,-2.04
2019-01-19T06:15:16.909Z,-2.11
2019-01-19T06:17:45.939Z,-2.14
2019-01-19T06:20:15.975Z,-2.18
2019-01-19T06:22:45.472Z,-2.20
2019-01-19T06:25:15.642Z,-2.22
2019-01-19T06:27:45.095Z,-2.22
2019-01-19T06:30:19.914Z,-2.25
2019-01-19T06:32:49.095Z,-2.29
2019-01-19T06:35:18.250Z,-2.33
2019-01-19T06:37:47.989Z,-2.33
2019-01-19T06:40:18.051Z,-2.35
2019-01-19T06:42:47.241Z,-2.34
2019-01-19T06:45:21.795Z,-2.36
2019-01-19T06:47:50.907Z,-2.34
2019-01-19T06:50:19.905Z,-2.36
2019-01-19T06:52:49.265Z,-2.38
2019-01-19T06:55:20.881Z,-2.41
2019-01-19T06:57:50.315Z,-2.45
2019-01-19T07:00:20.486Z,-2.38
2019-01-19T07:02:49.564Z,-2.34
2019-01-19T07:05:18.623Z,-2.36
2019-01-19T07:07:48.630Z,-2.40
2019-01-19T07:10:19.872Z,-2.41
2019-01-19T07:12:48.873Z,-2.35
2019-01-19T07:15:17.931Z,-2.33
2019-01-19T07:17:47.031Z,-2.32
2019-01-19T07:20:22.031Z,-2.35
2019-01-19T07:22:51.060Z,-2.34
2019-01-19T07:25:20.457Z,-2.26
2019-01-19T07:27:49.889Z,-2.29
2019-01-19T07:30:19.695Z,-2.29
2019-01-19T07:32:48.841Z,-2.25
2019-01-19T07:35:17.972Z,-2.18
2019-01-19T07:37:47.019Z,-2.20
2019-01-19T07:40:17.161Z,-2.13
2019-01-19T07:42:47.126Z,-2.04
2019-01-19T07:45:17.183Z,-1.96
2019-01-19T07:47:46.284Z,-1.87
2019-01-19T07:50:16.972Z,-1.98
2019-01-19T07:52:46.460Z,-1.88
2019-01-19T07:55:16.555Z,-1.88
2019-01-19T07:57:45.979Z,-1.88
2019-01-19T08:00:26.654Z,-1.85
2019-01-19T08:02:56.057Z,-1.69
2019-01-19T08:05:25.076Z,-1.62
2019-01-19T08:07:54.193Z,-1.56
2019-01-19T08:10:23.657Z,-1.40
2019-01-19T08:12:52.971Z,-1.30
2019-01-19T08:15:23.984Z,-1.21
2019-01-19T08:17:52.984Z,-1.10
2019-01-19T08:20:22.232Z,-1.04
2019-01-19T08:22:51.795Z,-1.06
2019-01-19T08:25:20.980Z,-0.87
2019-01-19T08:27:50.088Z,-0.83
2019-01-19T08:30:22.541Z,-0.78
2019-01-19T08:32:51.855Z,-0.73
2019-01-19T08:35:21.022Z,-0.68
2019-01-19T08:37:50.953Z,-0.54
2019-01-19T08:40:25.442Z,-0.54
2019-01-19T08:43:07.991Z,-0.44
2019-01-19T08:45:37.147Z,-0.29
2019-01-19T08:48:06.468Z,-0.27
2019-01-19T08:50:35.607Z,-0.03
2019-01-19T08:53:04.999Z,0.15
2019-01-19T08:55:34.315Z,0.57
2019-01-19T08:58:03.359Z,1.30
2019-01-19T09:00:32.397Z,2.02
2019-01-19T09:03:01.563Z,1.92
2019-01-19T09:05:30.655Z,1.74
2019-01-19T09:07:59.787Z,1.98
2019-01-19T09:10:28.851Z,2.65
2019-01-19T09:12:58.327Z,2.87
2019-01-19T09:15:27.345Z,2.45
2019-01-19T09:17:56.712Z,2.41
2019-01-19T09:20:25.772Z,2.16
2019-01-19T09:22:59.467Z,2.07
2019-01-19T09:25:28.855Z,1.79
2019-01-19T09:27:58.911Z,1.55
2019-01-19T09:30:28.096Z,1.41
2019-01-19T09:32:57.694Z,1.79
2019-01-19T09:35:27.335Z,2.23
2019-01-19T09:37:56.421Z,2.70
2019-01-19T09:40:25.931Z,2.79
2019-01-19T09:42:54.988Z,2.84
2019-01-19T09:45:24.049Z,3.11
2019-01-19T09:47:53.097Z,3.26
2019-01-19T09:50:22.781Z,3.52
2019-01-19T09:52:52.544Z,3.63
2019-01-19T09:55:22.907Z,3.71
2019-01-19T09:57:51.931Z,4.24
2019-01-19T10:00:22.114Z,4.54
2019-01-19T10:02:51.144Z,4.29
2019-01-19T10:05:21.667Z,3.36
2019-01-19T10:07:50.731Z,3.03
2019-01-19T10:10:19.724Z,2.97
2019-01-19T10:12:49.078Z,2.44
2019-01-19T10:15:18.182Z,2.54
2019-01-19T10:17:47.621Z,2.77
2019-01-19T10:20:19.206Z,3.37
2019-01-19T10:22:48.649Z,3.33
2019-01-19T10:25:18.172Z,3.71
2019-01-19T10:27:47.173Z,4.15
2019-01-19T10:30:18.589Z,5.03
2019-01-19T10:32:47.693Z,5.43
2019-01-19T10:35:16.977Z,5.47
2019-01-19T10:37:46.061Z,5.38
2019-01-19T10:40:15.674Z,5.86
2019-01-19T10:42:45.258Z,5.74
2019-01-19T10:45:16.932Z,6.14
2019-01-19T10:47:46.370Z,6.42
2019-01-19T10:50:16.332Z,6.58
2019-01-19T10:52:45.384Z,6.66
2019-01-19T10:55:18.878Z,6.64
2019-01-19T10:57:48.283Z,6.93
2019-01-19T11:00:19.899Z,6.88
2019-01-19T11:02:48.921Z,6.95
2019-01-19T11:05:17.962Z,7.46
2019-01-19T11:07:48.078Z,7.49
2019-01-19T11:10:19.360Z,6.91
2019-01-19T11:12:48.382Z,6.91
2019-01-19T11:15:18.158Z,7.40
2019-01-19T11:17:47.422Z,6.74
2019-01-19T11:20:18.838Z,6.72
2019-01-19T11:22:48.476Z,6.59
2019-01-19T11:25:17.578Z,6.58
2019-01-19T11:27:47.086Z,7.01
2019-01-19T11:30:21.652Z,7.32
2019-01-19T11:32:51.028Z,8.66
2019-01-19T11:35:20.476Z,8.65
2019-01-19T11:37:49.511Z,8.92
2019-01-19T11:40:27.234Z,8.26
2019-01-19T11:42:57.795Z,8.97
2019-01-19T11:45:26.910Z,9.51
2019-01-19T11:47:55.974Z,8.94
2019-01-19T11:50:25.332Z,8.25
2019-01-19T11:52:54.396Z,7.36
2019-01-19T11:55:24.416Z,7.36
2019-01-19T11:57:59.294Z,7.86
2019-01-19T12:00:29.870Z,8.29
2019-01-19T12:02:58.882Z,8.77
2019-01-19T12:05:27.943Z,7.34
2019-01-19T12:07:56.978Z,7.23
2019-01-19T12:10:28.060Z,7.23
2019-01-19T12:12:57.672Z,7.09
2019-01-19T12:15:27.286Z,7.47
2019-01-19T12:17:56.406Z,6.84
2019-01-19T12:20:37.420Z,6.64
2019-01-19T12:23:07.624Z,6.26
2019-01-19T12:25:36.706Z,6.92
2019-01-19T12:28:05.940Z,6.92
2019-01-19T12:30:35.309Z,7.28
2019-01-19T12:33:04.702Z,7.20
2019-01-19T12:35:33.940Z,7.19
2019-01-19T12:38:03.318Z,6.65
2019-01-19T12:40:32.332Z,5.87
2019-01-19T12:43:04.157Z,5.40
2019-01-19T12:45:39.889Z,5.25
2019-01-19T12:48:09.327Z,5.04
2019-01-19T12:50:38.425Z,5.34
2019-01-19T12:53:08.135Z,5.57
2019-01-19T12:55:37.274Z,5.76
2019-01-19T12:58:07.676Z,5.84
2019-01-19T13:00:37.057Z,5.82
2019-01-19T13:03:07.982Z,5.18
2019-01-19T13:05:54.036Z,4.87
2019-01-19T13:08:24.054Z,4.90
2019-01-19T13:11:07.966Z,5.03
2019-01-19T13:13:45.030Z,5.01
2019-01-19T13:17:09.426Z,4.87
2019-01-19T13:19:57.466Z,5.06
2019-01-19T13:23:02.800Z,5.14
2019-01-19T13:26:19.163Z,5.10
2019-01-19T13:29:27.853Z,5.39
2019-01-19T13:32:28.875Z,5.49
2019-01-19T13:35:44.778Z,5.58
2019-01-19T13:38:48.995Z,5.35
2019-01-19T13:41:59.154Z,5.48
2019-01-19T13:44:46.992Z,5.52
2019-01-19T13:47:51.937Z,5.67
2019-01-19T13:50:58.268Z,5.57
2019-01-19T13:53:41.518Z,5.40
2019-01-19T13:56:38.898Z,5.53
2019-01-19T13:59:24.368Z,5.54
2019-01-19T14:02:20.304Z,5.72
2019-01-19T14:05:04.344Z,5.69
2019-01-19T14:08:03.383Z,5.82
2019-01-19T14:11:16.745Z,5.99
2019-01-19T14:14:10.686Z,6.14
2019-01-19T14:17:17.002Z,6.25
2019-01-19T14:20:05.934Z,6.44
2019-01-19T14:23:11.312Z,6.29
2019-01-19T14:26:27.979Z,6.29
2019-01-19T14:29:38.254Z,6.05
2019-01-19T14:32:57.626Z,6.62
2019-01-19T14:35:53.945Z,6.80
2019-01-19T14:39:06.608Z,6.24
2019-01-19T14:42:06.345Z,6.10
2019-01-19T14:45:20.324Z,5.67
2019-01-19T14:48:35.116Z,5.16
2019-01-19T14:51:28.880Z,5.05
2019-01-19T14:54:24.964Z,4.71
2019-01-19T14:57:18.170Z,4.61
2019-01-19T15:00:31.554Z,4.64
2019-01-19T15:03:32.797Z,4.52
2019-01-19T15:06:44.495Z,4.71
2019-01-19T15:10:03.983Z,4.98
2019-01-19T15:12:59.990Z,5.24
2019-01-19T15:16:04.426Z,5.04
2019-01-19T15:19:33.022Z,5.14
2019-01-19T15:22:43.124Z,4.90
2019-01-19T15:25:59.522Z,4.69
2019-01-19T15:29:21.106Z,4.36
2019-01-19T15:32:26.039Z,4.04
2019-01-19T15:35:30.988Z,3.94
2019-01-19T15:38:22.277Z,3.80
2019-01-19T15:41:09.290Z,3.65
2019-01-19T15:44:09.944Z,3.39
2019-01-19T15:47:22.234Z,3.31
2019-01-19T15:50:16.011Z,3.04
2019-01-19T15:53:09.753Z,2.89
2019-01-19T15:56:02.556Z,2.78
2019-01-19T15:58:59.389Z,2.73
2019-01-19T16:02:06.936Z,2.61
2019-01-19T16:05:06.324Z,2.50
2019-01-19T16:08:25.685Z,2.47
2019-01-19T16:11:36.167Z,2.36
2019-01-19T16:14:57.390Z,2.19
2019-01-19T16:17:56.523Z,2.11
2019-01-19T16:20:51.990Z,1.94
2019-01-19T16:23:47.886Z,1.93
2019-01-19T16:26:37.204Z,1.85
2019-01-19T16:29:43.427Z,1.77
2019-01-19T16:32:36.720Z,1.83
2019-01-19T16:35:45.830Z,1.74
2019-01-19T16:38:37.911Z,1.65
2019-01-19T16:41:53.714Z,1.58
2019-01-19T16:45:07.979Z,1.62
2019-01-19T16:48:22.848Z,1.55
2019-01-19T16:51:32.248Z,1.43
2019-01-19T16:54:16.547Z,1.40
2019-01-19T16:57:28.232Z,1.35
2019-01-19T17:01:02.574Z,1.28
2019-01-19T17:04:28.214Z,1.27
2019-01-19T17:07:45.638Z,1.28
2019-01-19T17:10:59.076Z,1.22
2019-01-19T17:14:12.029Z,1.28
2019-01-19T17:17:03.828Z,1.23
2019-01-19T17:20:07.303Z,1.09
2019-01-19T17:23:16.568Z,1.06
2019-01-19T17:26:29.365Z,0.95
2019-01-19T17:29:09.242Z,0.72
2019-01-19T17:32:04.358Z,0.66
2019-01-19T17:35:10.477Z,0.60
2019-01-19T17:38:16.393Z,0.55
2019-01-19T17:41:21.103Z,0.52
2019-01-19T17:44:00.304Z,0.43
2019-01-19T17:47:05.175Z,0.39
2019-01-19T17:49:56.649Z,0.37
2019-01-19T17:52:51.634Z,0.44
2019-01-19T17:55:57.678Z,0.43
2019-01-19T17:59:03.672Z,0.35
2019-01-19T18:02:14.035Z,0.29
2019-01-19T18:05:36.294Z,0.25
2019-01-19T18:09:02.159Z,0.20
2019-01-19T18:11:50.858Z,0.15
2019-01-19T18:14:52.610Z,0.04
2019-01-19T18:17:43.386Z,0.01
2019-01-19T18:20:50.618Z,-0.03
2019-01-19T18:24:01.398Z,-0.10
2019-01-19T18:27:27.012Z,-0.10
2019-01-19T18:30:43.570Z,-0.11
2019-01-19T18:33:38.194Z,-0.15
2019-01-19T18:36:41.883Z,-0.18
2019-01-19T18:39:58.176Z,-0.22
2019-01-19T18:43:15.075Z,-0.27
2019-01-19T18:46:18.831Z,-0.33
2019-01-19T18:49:25.063Z,-0.40
2019-01-19T18:52:35.532Z,-0.38
2019-01-19T18:55:19.444Z,-0.44
2019-01-19T18:58:36.435Z,-0.47
2019-01-19T19:01:58.727Z,-0.49
2019-01-19T19:04:46.314Z,-0.53
2019-01-19T19:07:40.594Z,-0.53
2019-01-19T19:10:55.998Z,-0.57
2019-01-19T19:13:51.680Z,-0.59
2019-01-19T19:17:05.022Z,-0.60
2019-01-19T19:20:11.592Z,-0.65
2019-01-19T19:23:19.543Z,-0.62
2019-01-19T19:26:21.435Z,-0.62
2019-01-19T19:29:46.626Z,-0.61
2019-01-19T19:32:41.521Z,-0.61
2019-01-19T19:35:50.931Z,-0.58
2019-01-19T19:38:55.794Z,-0.61
2019-01-19T19:42:03.151Z,-0.58
2019-01-19T19:45:13.554Z,-0.61
2019-01-19T19:48:10.743Z,-0.58
2019-01-19T19:51:24.923Z,-0.59
2019-01-19T19:53:54.334Z,-0.60
2019-01-19T19:56:21.788Z,-0.62
2019-01-19T19:58:50.808Z,-0.64
2019-01-19T20:01:19.856Z,-0.69
2019-01-19T20:03:49.248Z,-0.72
2019-01-19T20:06:18.593Z,-0.74
2019-01-19T20:08:47.625Z,-0.79
2019-01-19T20:11:16.668Z,-0.85
2019-01-19T20:13:45.726Z,-0.82
2019-01-19T20:16:15.190Z,-0.85
2019-01-19T20:18:44.238Z,-0.85
2019-01-19T20:21:13.271Z,-0.85
2019-01-19T20:23:42.329Z,-0.84
2019-01-19T20:26:12.202Z,-0.82
2019-01-19T20:28:41.552Z,-0.77
2019-01-19T20:31:10.898Z,-0.77
2019-01-19T20:33:40.317Z,-0.76
2019-01-19T20:36:09.368Z,-0.73
2019-01-19T20:38:38.405Z,-0.75
2019-01-19T20:41:07.437Z,-0.74
2019-01-19T20:43:36.808Z,-0.74
2019-01-19T20:46:06.711Z,-0.79
2019-01-19T20:48:35.933Z,-0.82
2019-01-19T20:51:05.013Z,-0.87
2019-01-19T20:53:34.107Z,-0.85
2019-01-19T20:56:03.128Z,-0.82
2019-01-19T20:58:32.150Z,-0.81
2019-01-19T21:01:01.245Z,-0.88
2019-01-19T21:03:30.321Z,-0.91
2019-01-19T21:05:59.651Z,-0.97
2019-01-19T21:08:28.780Z,-0.98
2019-01-19T21:10:57.808Z,-1.00
2019-01-19T21:13:26.874Z,-1.03
2019-01-19T21:15:56.268Z,-1.04
2019-01-19T21:18:25.696Z,-1.04
2019-01-19T21:20:55.046Z,-1.08
2019-01-19T21:23:24.398Z,-1.13
2019-01-19T21:25:53.432Z,-1.10
2019-01-19T21:28:22.464Z,-1.16
2019-01-19T21:30:51.540Z,-1.15
2019-01-19T21:33:20.642Z,-1.21
2019-01-19T21:35:49.885Z,-1.24
2019-01-19T21:38:18.983Z,-1.27
2019-01-19T21:40:48.025Z,-1.27
2019-01-19T21:43:17.077Z,-1.25
2019-01-19T21:45:46.081Z,-1.28
2019-01-19T21:48:15.316Z,-1.32
2019-01-19T21:50:44.713Z,-1.35
2019-01-19T21:53:13.765Z,-1.35
2019-01-19T21:55:43.136Z,-1.34
2019-01-19T21:58:12.167Z,-1.36
2019-01-19T22:00:41.191Z,-1.44
2019-01-19T22:03:10.631Z,-1.48
2019-01-19T22:05:40.016Z,-1.49
2019-01-19T22:08:09.081Z,-1.43
2019-01-19T22:10:46.155Z,-1.44
2019-01-19T22:13:10.598Z,-1.42
2019-01-19T22:15:39.629Z,-1.41
2019-01-19T22:18:09.007Z,-1.43
2019-01-19T22:20:38.087Z,-1.42
2019-01-19T22:23:07.487Z,-1.32
2019-01-19T22:25:36.542Z,-1.36
2019-01-19T22:28:06.017Z,-1.38
2019-01-19T22:30:35.087Z,-1.42
2019-01-19T22:33:04.136Z,-1.44
2019-01-19T22:35:33.142Z,-1.42
2019-01-19T22:38:02.261Z,-1.44
2019-01-19T22:40:31.366Z,-1.40
2019-01-19T22:43:03.368Z,-1.44
2019-01-19T22:45:32.485Z,-1.43
2019-01-19T22:48:02.314Z,-1.40
2019-01-19T22:50:31.631Z,-1.45
2019-01-19T22:53:00.843Z,-1.35
2019-01-19T22:55:29.974Z,-1.39
2019-01-19T22:57:59.409Z,-1.44
2019-01-19T23:00:58.102Z,-1.42
2019-01-19T23:03:28.305Z,-1.38
2019-01-19T23:05:57.336Z,-1.40
2019-01-19T23:08:26.967Z,-1.42
2019-01-19T23:11:01.143Z,-1.40
2019-01-19T23:13:27.084Z,-1.45
2019-01-19T23:15:56.129Z,-1.48
2019-01-19T23:18:25.480Z,-1.52
2019-01-19T23:20:54.778Z,-1.52
2019-01-19T23:23:23.803Z,-1.56
2019-01-19T23:25:52.832Z,-1.60
2019-01-19T23:28:22.193Z,-1.60
2019-01-19T23:30:54.012Z,-1.66
2019-01-19T23:33:23.343Z,-1.67
2019-01-19T23:35:53.053Z,-1.67
2019-01-19T23:38:22.873Z,-1.67
2019-01-19T23:40:52.410Z,-1.70
2019-01-19T23:43:21.795Z,-1.72
2019-01-19T23:45:52.119Z,-1.74
2019-01-19T23:48:21.251Z,-1.76
2019-01-19T23:50:50.643Z,-1.80
2019-01-19T23:53:20.029Z,-1.80
2019-01-19T23:55:53.271Z,-1.83
2019-01-19T23:58:22.300Z,-1.88
